sensor_id;sensor_type;location;lat;lon;timestamp;pressure;altitude;pressure_sealevel;temperature;humidity
62978;BME280;49073;42.352;23.808;2022-07-09T00:01:35;94591.03;;;17.99;86.24
62978;BME280;49073;42.352;23.808;2022-07-09T00:04:36;94592.56;;;17.96;87.45
62978;BME280;49073;42.352;23.808;2022-07-09T00:07:36;94588.41;;;17.92;87.41
62978;BME280;49073;42.352;23.808;2022-07-09T00:10:37;94588.69;;;17.66;87.85
62978;BME280;49073;42.352;23.808;2022-07-09T00:13:37;94592.06;;;17.74;88.05
62978;BME280;49073;42.352;23.808;2022-07-09T00:16:38;94592.22;;;17.59;88.73
62978;BME280;49073;42.352;23.808;2022-07-09T00:19:38;94583.53;;;17.41;88.56
62978;BME280;49073;42.352;23.808;2022-07-09T00:22:38;94578.00;;;17.55;89.57
62978;BME280;49073;42.352;23.808;2022-07-09T00:25:39;94574.38;;;17.73;87.86
62978;BME280;49073;42.352;23.808;2022-07-09T00:28:39;94567.75;;;17.81;86.99
62978;BME280;49073;42.352;23.808;2022-07-09T00:31:40;94554.34;;;17.74;87.91
62978;BME280;49073;42.352;23.808;2022-07-09T00:34:40;94560.53;;;17.71;88.22
62978;BME280;49073;42.352;23.808;2022-07-09T00:37:41;94557.41;;;17.76;89.24
62978;BME280;49073;42.352;23.808;2022-07-09T00:40:41;94550.13;;;17.73;89.26
62978;BME280;49073;42.352;23.808;2022-07-09T00:43:46;94551.56;;;17.81;87.90
62978;BME280;49073;42.352;23.808;2022-07-09T00:46:48;94554.97;;;17.85;88.15
62978;BME280;49073;42.352;23.808;2022-07-09T00:49:49;94562.72;;;17.83;87.93
62978;BME280;49073;42.352;23.808;2022-07-09T00:52:49;94552.22;;;17.89;88.17
62978;BME280;49073;42.352;23.808;2022-07-09T00:55:50;94545.47;;;18.08;87.02
62978;BME280;49073;42.352;23.808;2022-07-09T00:58:52;94540.91;;;18.05;85.53
62978;BME280;49073;42.352;23.808;2022-07-09T01:01:54;94532.16;;;17.94;86.82
62978;BME280;49073;42.352;23.808;2022-07-09T01:04:54;94531.03;;;17.91;87.09
62978;BME280;49073;42.352;23.808;2022-07-09T01:07:55;94517.97;;;17.89;87.64
62978;BME280;49073;42.352;23.808;2022-07-09T01:10:56;94520.69;;;17.86;88.26
62978;BME280;49073;42.352;23.808;2022-07-09T01:13:57;94529.59;;;17.83;88.38
62978;BME280;49073;42.352;23.808;2022-07-09T01:16:59;94539.28;;;17.77;88.23
62978;BME280;49073;42.352;23.808;2022-07-09T01:20:00;94523.31;;;17.58;89.63
62978;BME280;49073;42.352;23.808;2022-07-09T01:23:00;94522.72;;;17.78;89.12
62978;BME280;49073;42.352;23.808;2022-07-09T01:26:01;94524.47;;;17.92;87.69
62978;BME280;49073;42.352;23.808;2022-07-09T01:29:02;94517.63;;;17.84;87.61
62978;BME280;49073;42.352;23.808;2022-07-09T01:32:02;94524.88;;;17.91;87.84
62978;BME280;49073;42.352;23.808;2022-07-09T01:35:04;94519.53;;;17.87;87.83
62978;BME280;49073;42.352;23.808;2022-07-09T01:38:04;94521.59;;;17.76;89.30
62978;BME280;49073;42.352;23.808;2022-07-09T01:41:05;94524.88;;;17.91;88.96
62978;BME280;49073;42.352;23.808;2022-07-09T01:44:05;94526.88;;;17.83;88.24
62978;BME280;49073;42.352;23.808;2022-07-09T01:47:07;94528.75;;;17.89;86.92
62978;BME280;49073;42.352;23.808;2022-07-09T01:50:08;94523.44;;;17.82;87.00
62978;BME280;49073;42.352;23.808;2022-07-09T01:53:09;94522.00;;;17.74;87.47
62978;BME280;49073;42.352;23.808;2022-07-09T01:56:10;94513.56;;;17.72;88.07
62978;BME280;49073;42.352;23.808;2022-07-09T01:59:11;94513.50;;;17.76;87.67
62978;BME280;49073;42.352;23.808;2022-07-09T02:02:12;94514.78;;;17.64;89.21
62978;BME280;49073;42.352;23.808;2022-07-09T02:05:12;94504.34;;;17.69;88.85
62978;BME280;49073;42.352;23.808;2022-07-09T02:08:13;94513.69;;;17.61;88.31
62978;BME280;49073;42.352;23.808;2022-07-09T02:11:15;94509.13;;;17.54;88.71
62978;BME280;49073;42.352;23.808;2022-07-09T02:14:16;94518.47;;;17.46;89.25
62978;BME280;49073;42.352;23.808;2022-07-09T02:17:17;94514.88;;;17.56;89.04
62978;BME280;49073;42.352;23.808;2022-07-09T02:20:17;94517.72;;;17.45;89.25
62978;BME280;49073;42.352;23.808;2022-07-09T02:23:18;94521.41;;;17.59;88.37
62978;BME280;49073;42.352;23.808;2022-07-09T02:26:18;94522.47;;;17.65;88.08
62978;BME280;49073;42.352;23.808;2022-07-09T02:29:19;94523.38;;;17.55;88.51
62978;BME280;49073;42.352;23.808;2022-07-09T02:32:19;94518.25;;;17.64;89.18
62978;BME280;49073;42.352;23.808;2022-07-09T02:35:20;94516.09;;;17.52;89.08
62978;BME280;49073;42.352;23.808;2022-07-09T02:38:21;94527.97;;;17.58;88.83
62978;BME280;49073;42.352;23.808;2022-07-09T02:41:22;94525.22;;;17.62;89.20
62978;BME280;49073;42.352;23.808;2022-07-09T02:44:22;94529.03;;;17.64;88.84
62978;BME280;49073;42.352;23.808;2022-07-09T02:47:23;94532.97;;;17.56;89.19
62978;BME280;49073;42.352;23.808;2022-07-09T02:50:24;94530.13;;;17.70;88.47
62978;BME280;49073;42.352;23.808;2022-07-09T02:53:24;94543.69;;;17.63;88.70
62978;BME280;49073;42.352;23.808;2022-07-09T02:56:25;94539.34;;;17.73;87.53
62978;BME280;49073;42.352;23.808;2022-07-09T02:59:26;94545.47;;;17.73;87.20
62978;BME280;49073;42.352;23.808;2022-07-09T03:02:26;94541.97;;;17.77;86.98
62978;BME280;49073;42.352;23.808;2022-07-09T03:05:28;94536.66;;;17.73;86.55
62978;BME280;49073;42.352;23.808;2022-07-09T03:08:29;94529.78;;;17.65;87.06
62978;BME280;49073;42.352;23.808;2022-07-09T03:11:29;94544.88;;;17.58;88.26
62978;BME280;49073;42.352;23.808;2022-07-09T03:14:30;94539.00;;;17.67;88.32
62978;BME280;49073;42.352;23.808;2022-07-09T03:17:30;94549.00;;;17.67;87.59
62978;BME280;49073;42.352;23.808;2022-07-09T03:20:31;94549.47;;;17.62;87.67
62978;BME280;49073;42.352;23.808;2022-07-09T03:23:32;94537.66;;;17.52;87.45
62978;BME280;49073;42.352;23.808;2022-07-09T03:26:33;94542.91;;;17.63;87.83
62978;BME280;49073;42.352;23.808;2022-07-09T03:29:33;94536.06;;;17.54;86.29
62978;BME280;49073;42.352;23.808;2022-07-09T03:32:33;94531.31;;;17.66;85.15
62978;BME280;49073;42.352;23.808;2022-07-09T03:35:34;94530.91;;;17.71;86.44
62978;BME280;49073;42.352;23.808;2022-07-09T03:38:34;94537.88;;;17.65;86.14
62978;BME280;49073;42.352;23.808;2022-07-09T03:41:36;94534.88;;;17.59;85.74
62978;BME280;49073;42.352;23.808;2022-07-09T03:44:37;94534.94;;;17.52;86.99
62978;BME280;49073;42.352;23.808;2022-07-09T03:47:37;94538.00;;;17.54;86.80
62978;BME280;49073;42.352;23.808;2022-07-09T03:50:38;94540.63;;;17.61;84.88
62978;BME280;49073;42.352;23.808;2022-07-09T03:53:38;94540.50;;;17.72;84.66
62978;BME280;49073;42.352;23.808;2022-07-09T03:56:40;94537.94;;;17.61;85.19
62978;BME280;49073;42.352;23.808;2022-07-09T03:59:40;94548.66;;;17.65;86.11
62978;BME280;49073;42.352;23.808;2022-07-09T04:02:41;94546.28;;;17.70;86.98
62978;BME280;49073;42.352;23.808;2022-07-09T04:05:41;94548.91;;;17.78;85.62
62978;BME280;49073;42.352;23.808;2022-07-09T04:08:44;94531.66;;;17.71;86.64
62978;BME280;49073;42.352;23.808;2022-07-09T04:11:45;94538.19;;;17.74;86.23
62978;BME280;49073;42.352;23.808;2022-07-09T04:14:45;94550.44;;;17.79;87.16
62978;BME280;49073;42.352;23.808;2022-07-09T04:17:46;94549.22;;;17.83;85.06
62978;BME280;49073;42.352;23.808;2022-07-09T04:20:46;94550.41;;;17.82;84.99
62978;BME280;49073;42.352;23.808;2022-07-09T04:23:49;94553.75;;;17.90;83.02
62978;BME280;49073;42.352;23.808;2022-07-09T04:26:50;94556.53;;;17.83;83.39
62978;BME280;49073;42.352;23.808;2022-07-09T04:29:50;94554.28;;;17.78;83.71
62978;BME280;49073;42.352;23.808;2022-07-09T04:32:51;94557.00;;;17.78;83.95
62978;BME280;49073;42.352;23.808;2022-07-09T04:35:51;94557.88;;;18.02;83.68
62978;BME280;49073;42.352;23.808;2022-07-09T04:38:52;94570.25;;;17.96;85.05
62978;BME280;49073;42.352;23.808;2022-07-09T04:41:52;94573.31;;;17.98;85.65
62978;BME280;49073;42.352;23.808;2022-07-09T04:44:53;94577.91;;;18.05;85.54
62978;BME280;49073;42.352;23.808;2022-07-09T04:47:53;94564.84;;;17.99;83.90
62978;BME280;49073;42.352;23.808;2022-07-09T04:50:54;94568.53;;;18.13;82.16
62978;BME280;49073;42.352;23.808;2022-07-09T04:53:54;94567.13;;;18.05;82.13
62978;BME280;49073;42.352;23.808;2022-07-09T04:56:55;94564.72;;;18.10;81.22
62978;BME280;49073;42.352;23.808;2022-07-09T05:00:00;94562.25;;;18.23;83.31
62978;BME280;49073;42.352;23.808;2022-07-09T05:03:00;94561.56;;;18.15;82.46
62978;BME280;49073;42.352;23.808;2022-07-09T05:06:01;94558.56;;;18.10;83.10
62978;BME280;49073;42.352;23.808;2022-07-09T05:09:02;94565.34;;;18.22;83.32
62978;BME280;49073;42.352;23.808;2022-07-09T05:12:03;94560.00;;;18.18;82.25
62978;BME280;49073;42.352;23.808;2022-07-09T05:15:03;94573.88;;;18.16;83.27
62978;BME280;49073;42.352;23.808;2022-07-09T05:18:04;94570.00;;;18.17;81.83
62978;BME280;49073;42.352;23.808;2022-07-09T05:21:05;94569.25;;;18.17;82.28
62978;BME280;49073;42.352;23.808;2022-07-09T05:24:05;94574.47;;;18.00;82.10
62978;BME280;49073;42.352;23.808;2022-07-09T05:27:07;94580.34;;;18.23;84.01
62978;BME280;49073;42.352;23.808;2022-07-09T05:30:12;94570.81;;;18.14;82.82
62978;BME280;49073;42.352;23.808;2022-07-09T05:33:16;94575.41;;;18.17;81.62
62978;BME280;49073;42.352;23.808;2022-07-09T05:36:18;94579.47;;;18.33;82.58
62978;BME280;49073;42.352;23.808;2022-07-09T05:39:19;94578.81;;;18.22;83.44
62978;BME280;49073;42.352;23.808;2022-07-09T05:42:20;94583.66;;;18.07;81.77
62978;BME280;49073;42.352;23.808;2022-07-09T05:45:21;94585.25;;;18.31;80.74
62978;BME280;49073;42.352;23.808;2022-07-09T05:48:21;94578.69;;;18.32;81.57
62978;BME280;49073;42.352;23.808;2022-07-09T05:51:22;94581.25;;;18.43;81.19
62978;BME280;49073;42.352;23.808;2022-07-09T05:54:23;94578.59;;;18.40;80.83
62978;BME280;49073;42.352;23.808;2022-07-09T05:57:24;94577.38;;;18.44;81.51
62978;BME280;49073;42.352;23.808;2022-07-09T06:00:24;94576.22;;;18.45;81.68
62978;BME280;49073;42.352;23.808;2022-07-09T06:03:25;94569.75;;;18.39;79.27
62978;BME280;49073;42.352;23.808;2022-07-09T06:06:31;94574.25;;;18.46;77.78
62978;BME280;49073;42.352;23.808;2022-07-09T06:09:33;94578.38;;;18.54;79.73
62978;BME280;49073;42.352;23.808;2022-07-09T06:12:33;94575.28;;;18.56;77.67
62978;BME280;49073;42.352;23.808;2022-07-09T06:15:35;94578.09;;;18.49;79.25
62978;BME280;49073;42.352;23.808;2022-07-09T06:18:36;94579.56;;;18.53;78.70
62978;BME280;49073;42.352;23.808;2022-07-09T06:21:36;94581.28;;;18.67;78.56
62978;BME280;49073;42.352;23.808;2022-07-09T06:24:37;94582.47;;;18.66;76.80
62978;BME280;49073;42.352;23.808;2022-07-09T06:27:37;94589.28;;;18.74;77.16
62978;BME280;49073;42.352;23.808;2022-07-09T06:30:38;94581.84;;;18.82;77.89
62978;BME280;49073;42.352;23.808;2022-07-09T06:33:38;94567.06;;;18.90;77.56
62978;BME280;49073;42.352;23.808;2022-07-09T06:36:39;94572.63;;;18.80;76.73
62978;BME280;49073;42.352;23.808;2022-07-09T06:39:40;94570.28;;;18.82;77.09
62978;BME280;49073;42.352;23.808;2022-07-09T06:42:48;94561.78;;;18.83;77.09
62978;BME280;49073;42.352;23.808;2022-07-09T06:45:48;94563.78;;;18.79;76.85
62978;BME280;49073;42.352;23.808;2022-07-09T06:48:49;94573.44;;;18.76;77.59
62978;BME280;49073;42.352;23.808;2022-07-09T06:51:49;94566.97;;;18.70;76.66
62978;BME280;49073;42.352;23.808;2022-07-09T06:54:50;94572.91;;;18.61;76.19
62978;BME280;49073;42.352;23.808;2022-07-09T06:57:50;94565.66;;;18.55;77.99
62978;BME280;49073;42.352;23.808;2022-07-09T07:00:51;94571.66;;;18.66;78.16
62978;BME280;49073;42.352;23.808;2022-07-09T07:03:51;94559.59;;;18.74;77.68
62978;BME280;49073;42.352;23.808;2022-07-09T07:06:52;94559.19;;;18.76;77.36
62978;BME280;49073;42.352;23.808;2022-07-09T07:09:53;94569.06;;;18.86;78.21
62978;BME280;49073;42.352;23.808;2022-07-09T07:12:54;94562.44;;;18.91;76.48
62978;BME280;49073;42.352;23.808;2022-07-09T07:15:55;94565.75;;;19.02;76.58
62978;BME280;49073;42.352;23.808;2022-07-09T07:18:56;94563.34;;;19.08;76.39
62978;BME280;49073;42.352;23.808;2022-07-09T07:21:57;94555.53;;;19.14;75.63
62978;BME280;49073;42.352;23.808;2022-07-09T07:24:57;94567.03;;;19.18;74.44
62978;BME280;49073;42.352;23.808;2022-07-09T07:27:58;94558.63;;;19.36;76.38
62978;BME280;49073;42.352;23.808;2022-07-09T07:30:58;94557.72;;;19.43;76.68
62978;BME280;49073;42.352;23.808;2022-07-09T07:33:59;94560.69;;;19.52;76.51
62978;BME280;49073;42.352;23.808;2022-07-09T07:37:00;94552.69;;;19.65;74.95
62978;BME280;49073;42.352;23.808;2022-07-09T07:40:00;94554.69;;;19.41;73.70
62978;BME280;49073;42.352;23.808;2022-07-09T07:43:01;94560.31;;;19.50;73.83
62978;BME280;49073;42.352;23.808;2022-07-09T07:46:02;94557.28;;;19.48;74.23
62978;BME280;49073;42.352;23.808;2022-07-09T07:49:02;94552.63;;;19.69;73.97
62978;BME280;49073;42.352;23.808;2022-07-09T07:52:03;94551.88;;;19.68;74.02
62978;BME280;49073;42.352;23.808;2022-07-09T07:55:05;94549.84;;;19.72;73.20
62978;BME280;49073;42.352;23.808;2022-07-09T07:58:05;94554.00;;;19.57;71.88
62978;BME280;49073;42.352;23.808;2022-07-09T08:01:06;94560.81;;;19.65;73.43
62978;BME280;49073;42.352;23.808;2022-07-09T08:04:06;94549.09;;;19.72;73.01
62978;BME280;49073;42.352;23.808;2022-07-09T08:07:07;94560.47;;;19.83;73.13
62978;BME280;49073;42.352;23.808;2022-07-09T08:10:09;94561.31;;;19.80;72.21
62978;BME280;49073;42.352;23.808;2022-07-09T08:13:09;94559.88;;;19.75;70.39
62978;BME280;49073;42.352;23.808;2022-07-09T08:16:12;94558.75;;;19.73;70.32
62978;BME280;49073;42.352;23.808;2022-07-09T08:19:12;94560.88;;;19.61;71.14
62978;BME280;49073;42.352;23.808;2022-07-09T08:22:14;94564.13;;;19.53;71.09
62978;BME280;49073;42.352;23.808;2022-07-09T08:25:15;94558.78;;;19.69;71.27
62978;BME280;49073;42.352;23.808;2022-07-09T08:28:15;94555.69;;;19.71;70.76
62978;BME280;49073;42.352;23.808;2022-07-09T08:31:17;94561.09;;;19.71;71.11
62978;BME280;49073;42.352;23.808;2022-07-09T08:34:18;94555.09;;;20.03;72.15
62978;BME280;49073;42.352;23.808;2022-07-09T08:37:18;94560.50;;;20.03;70.61
62978;BME280;49073;42.352;23.808;2022-07-09T08:40:19;94559.78;;;20.19;71.23
62978;BME280;49073;42.352;23.808;2022-07-09T08:43:19;94561.22;;;20.24;69.36
62978;BME280;49073;42.352;23.808;2022-07-09T08:46:20;94556.94;;;20.43;68.47
62978;BME280;49073;42.352;23.808;2022-07-09T08:49:22;94550.25;;;20.31;67.88
62978;BME280;49073;42.352;23.808;2022-07-09T08:52:24;94558.44;;;20.28;68.16
62978;BME280;49073;42.352;23.808;2022-07-09T08:55:27;94545.63;;;20.48;69.09
62978;BME280;49073;42.352;23.808;2022-07-09T08:58:31;94549.88;;;20.66;68.27
62978;BME280;49073;42.352;23.808;2022-07-09T09:01:32;94548.41;;;20.82;66.03
62978;BME280;49073;42.352;23.808;2022-07-09T09:04:33;94559.81;;;21.06;69.66
62978;BME280;49073;42.352;23.808;2022-07-09T09:07:39;94560.50;;;21.10;66.08
62978;BME280;49073;42.352;23.808;2022-07-09T09:10:45;94554.47;;;21.19;64.61
62978;BME280;49073;42.352;23.808;2022-07-09T09:13:47;94550.44;;;21.40;66.51
62978;BME280;49073;42.352;23.808;2022-07-09T09:16:49;94556.63;;;21.41;65.51
62978;BME280;49073;42.352;23.808;2022-07-09T09:19:49;94557.63;;;21.47;64.35
62978;BME280;49073;42.352;23.808;2022-07-09T09:22:51;94559.78;;;21.22;63.97
62978;BME280;49073;42.352;23.808;2022-07-09T09:29:16;94566.41;;;21.68;63.97
62978;BME280;49073;42.352;23.808;2022-07-09T09:32:19;94560.63;;;21.82;62.52
62978;BME280;49073;42.352;23.808;2022-07-09T09:35:22;94550.91;;;21.98;63.33
62978;BME280;49073;42.352;23.808;2022-07-09T09:38:23;94548.94;;;21.98;60.93
62978;BME280;49073;42.352;23.808;2022-07-09T09:41:27;94545.88;;;21.83;60.84
62978;BME280;49073;42.352;23.808;2022-07-09T09:44:34;94558.38;;;21.93;62.49
62978;BME280;49073;42.352;23.808;2022-07-09T09:47:37;94555.63;;;21.80;62.79
62978;BME280;49073;42.352;23.808;2022-07-09T09:50:38;94556.31;;;21.98;62.02
62978;BME280;49073;42.352;23.808;2022-07-09T09:53:39;94554.06;;;22.09;61.22
62978;BME280;49073;42.352;23.808;2022-07-09T09:56:41;94541.91;;;22.14;61.08
62978;BME280;49073;42.352;23.808;2022-07-09T09:59:42;94546.50;;;22.43;61.01
62978;BME280;49073;42.352;23.808;2022-07-09T10:02:46;94546.97;;;22.54;61.00
62978;BME280;49073;42.352;23.808;2022-07-09T10:05:47;94543.16;;;22.51;58.59
62978;BME280;49073;42.352;23.808;2022-07-09T10:08:48;94535.75;;;22.39;59.40
62978;BME280;49073;42.352;23.808;2022-07-09T10:11:49;94537.19;;;22.70;61.00
62978;BME280;49073;42.352;23.808;2022-07-09T10:14:50;94528.78;;;22.38;60.56
62978;BME280;49073;42.352;23.808;2022-07-09T10:17:50;94537.44;;;22.07;60.51
62978;BME280;49073;42.352;23.808;2022-07-09T10:20:55;94533.16;;;21.80;61.95
62978;BME280;49073;42.352;23.808;2022-07-09T10:23:56;94531.91;;;21.39;61.22
62978;BME280;49073;42.352;23.808;2022-07-09T10:27:08;94517.53;;;21.25;62.58
62978;BME280;49073;42.352;23.808;2022-07-09T10:33:34;94512.28;;;21.34;62.82
62978;BME280;49073;42.352;23.808;2022-07-09T10:36:35;94525.34;;;21.23;63.00
62978;BME280;49073;42.352;23.808;2022-07-09T10:39:37;94523.78;;;21.39;62.60
62978;BME280;49073;42.352;23.808;2022-07-09T10:42:38;94524.34;;;21.46;62.21
62978;BME280;49073;42.352;23.808;2022-07-09T10:45:43;94518.88;;;21.33;60.23
62978;BME280;49073;42.352;23.808;2022-07-09T10:48:46;94511.78;;;21.23;60.67
62978;BME280;49073;42.352;23.808;2022-07-09T10:51:47;94520.53;;;21.14;60.75
62978;BME280;49073;42.352;23.808;2022-07-09T10:54:49;94512.38;;;21.14;61.96
62978;BME280;49073;42.352;23.808;2022-07-09T10:57:49;94512.72;;;21.16;62.36
62978;BME280;49073;42.352;23.808;2022-07-09T11:01:00;94511.09;;;21.19;62.49
62978;BME280;49073;42.352;23.808;2022-07-09T11:04:02;94512.63;;;21.20;62.68
62978;BME280;49073;42.352;23.808;2022-07-09T11:07:03;94519.25;;;21.02;62.70
62978;BME280;49073;42.352;23.808;2022-07-09T11:10:04;94510.28;;;21.05;61.86
62978;BME280;49073;42.352;23.808;2022-07-09T11:13:07;94515.50;;;21.13;62.72
62978;BME280;49073;42.352;23.808;2022-07-09T11:16:09;94515.44;;;21.16;62.73
62978;BME280;49073;42.352;23.808;2022-07-09T11:19:17;94510.50;;;21.28;60.83
62978;BME280;49073;42.352;23.808;2022-07-09T11:22:18;94507.97;;;21.20;60.77
62978;BME280;49073;42.352;23.808;2022-07-09T11:25:18;94499.59;;;21.15;61.39
62978;BME280;49073;42.352;23.808;2022-07-09T11:28:24;94492.94;;;21.03;61.06
62978;BME280;49073;42.352;23.808;2022-07-09T11:31:24;94500.06;;;20.97;61.25
62978;BME280;49073;42.352;23.808;2022-07-09T11:34:25;94499.63;;;20.98;60.63
62978;BME280;49073;42.352;23.808;2022-07-09T11:37:25;94497.41;;;21.10;61.54
62978;BME280;49073;42.352;23.808;2022-07-09T11:40:26;94497.16;;;20.87;61.22
62978;BME280;49073;42.352;23.808;2022-07-09T11:43:27;94500.88;;;20.77;61.48
62978;BME280;49073;42.352;23.808;2022-07-09T11:46:28;94506.22;;;20.64;62.37
62978;BME280;49073;42.352;23.808;2022-07-09T11:49:39;94494.13;;;20.52;62.26
62978;BME280;49073;42.352;23.808;2022-07-09T11:52:48;94503.31;;;20.55;63.58
62978;BME280;49073;42.352;23.808;2022-07-09T11:56:02;94505.28;;;20.38;63.12
62978;BME280;49073;42.352;23.808;2022-07-09T11:59:04;94493.63;;;20.41;63.95
62978;BME280;49073;42.352;23.808;2022-07-09T12:02:04;94497.81;;;20.25;62.83
62978;BME280;49073;42.352;23.808;2022-07-09T12:05:08;94498.25;;;20.24;63.69
62978;BME280;49073;42.352;23.808;2022-07-09T12:08:09;94497.81;;;20.25;64.07
62978;BME280;49073;42.352;23.808;2022-07-09T12:11:10;94498.91;;;20.28;64.03
62978;BME280;49073;42.352;23.808;2022-07-09T12:14:10;94494.00;;;20.23;64.04
62978;BME280;49073;42.352;23.808;2022-07-09T12:17:20;94492.66;;;20.31;64.66
62978;BME280;49073;42.352;23.808;2022-07-09T12:20:27;94492.38;;;20.25;63.13
62978;BME280;49073;42.352;23.808;2022-07-09T12:23:27;94497.47;;;20.23;63.72
62978;BME280;49073;42.352;23.808;2022-07-09T12:26:28;94504.91;;;20.19;63.38
62978;BME280;49073;42.352;23.808;2022-07-09T12:29:30;94513.72;;;20.03;63.74
62978;BME280;49073;42.352;23.808;2022-07-09T12:32:31;94520.53;;;20.11;64.38
62978;BME280;49073;42.352;23.808;2022-07-09T12:35:32;94522.56;;;20.07;63.74
62978;BME280;49073;42.352;23.808;2022-07-09T12:38:32;94536.69;;;20.15;63.45
62978;BME280;49073;42.352;23.808;2022-07-09T12:41:33;94533.13;;;20.18;63.24
62978;BME280;49073;42.352;23.808;2022-07-09T12:44:33;94541.34;;;20.14;64.02
62978;BME280;49073;42.352;23.808;2022-07-09T12:47:34;94537.38;;;20.19;63.77
62978;BME280;49073;42.352;23.808;2022-07-09T12:50:34;94529.53;;;20.25;64.09
62978;BME280;49073;42.352;23.808;2022-07-09T12:53:35;94523.13;;;20.35;64.75
62978;BME280;49073;42.352;23.808;2022-07-09T12:56:36;94525.53;;;20.29;64.83
62978;BME280;49073;42.352;23.808;2022-07-09T12:59:37;94523.78;;;20.23;65.40
62978;BME280;49073;42.352;23.808;2022-07-09T13:02:38;94515.13;;;20.11;64.54
62978;BME280;49073;42.352;23.808;2022-07-09T13:05:38;94519.50;;;20.05;63.81
62978;BME280;49073;42.352;23.808;2022-07-09T13:08:39;94515.72;;;20.19;64.62
62978;BME280;49073;42.352;23.808;2022-07-09T13:11:39;94518.38;;;20.23;63.41
62978;BME280;49073;42.352;23.808;2022-07-09T13:14:40;94514.28;;;20.14;62.48
62978;BME280;49073;42.352;23.808;2022-07-09T13:17:40;94513.88;;;19.96;61.81
62978;BME280;49073;42.352;23.808;2022-07-09T13:20:41;94505.28;;;20.01;63.42
62978;BME280;49073;42.352;23.808;2022-07-09T13:23:41;94516.50;;;20.19;65.35
62978;BME280;49073;42.352;23.808;2022-07-09T13:26:42;94518.09;;;20.17;65.57
62978;BME280;49073;42.352;23.808;2022-07-09T13:29:43;94504.59;;;19.97;65.30
62978;BME280;49073;42.352;23.808;2022-07-09T13:32:43;94503.34;;;20.01;65.88
62978;BME280;49073;42.352;23.808;2022-07-09T13:35:44;94502.44;;;20.08;65.33
62978;BME280;49073;42.352;23.808;2022-07-09T13:38:44;94501.66;;;20.08;65.24
62978;BME280;49073;42.352;23.808;2022-07-09T13:41:45;94505.28;;;20.01;65.37
62978;BME280;49073;42.352;23.808;2022-07-09T13:44:45;94496.47;;;19.97;66.03
62978;BME280;49073;42.352;23.808;2022-07-09T13:47:46;94493.44;;;19.95;65.33
62978;BME280;49073;42.352;23.808;2022-07-09T13:50:46;94500.56;;;19.85;65.76
62978;BME280;49073;42.352;23.808;2022-07-09T13:53:47;94503.16;;;19.92;65.64
62978;BME280;49073;42.352;23.808;2022-07-09T13:56:48;94497.44;;;20.06;65.82
62978;BME280;49073;42.352;23.808;2022-07-09T13:59:49;94493.69;;;20.37;65.92
62978;BME280;49073;42.352;23.808;2022-07-09T14:02:50;94500.78;;;20.47;65.50
62978;BME280;49073;42.352;23.808;2022-07-09T14:05:52;94501.66;;;20.77;63.48
62978;BME280;49073;42.352;23.808;2022-07-09T14:08:53;94515.19;;;20.77;62.99
62978;BME280;49073;42.352;23.808;2022-07-09T14:11:55;94496.56;;;20.46;62.91
62978;BME280;49073;42.352;23.808;2022-07-09T14:14:56;94511.09;;;20.36;63.98
62978;BME280;49073;42.352;23.808;2022-07-09T14:17:58;94497.06;;;20.25;62.43
62978;BME280;49073;42.352;23.808;2022-07-09T14:20:58;94502.97;;;20.36;63.83
62978;BME280;49073;42.352;23.808;2022-07-09T14:23:59;94496.72;;;20.23;63.94
62978;BME280;49073;42.352;23.808;2022-07-09T14:27:00;94508.22;;;20.27;63.77
62978;BME280;49073;42.352;23.808;2022-07-09T14:30:00;94509.25;;;20.33;63.82
62978;BME280;49073;42.352;23.808;2022-07-09T14:33:01;94510.50;;;20.28;64.14
62978;BME280;49073;42.352;23.808;2022-07-09T14:36:01;94515.16;;;20.28;64.80
62978;BME280;49073;42.352;23.808;2022-07-09T14:39:03;94506.94;;;20.31;64.10
62978;BME280;49073;42.352;23.808;2022-07-09T14:42:03;94500.09;;;20.27;63.66
62978;BME280;49073;42.352;23.808;2022-07-09T14:45:04;94498.66;;;20.22;63.54
62978;BME280;49073;42.352;23.808;2022-07-09T14:48:05;94498.84;;;19.95;62.85
62978;BME280;49073;42.352;23.808;2022-07-09T14:51:07;94496.47;;;19.97;64.50
62978;BME280;49073;42.352;23.808;2022-07-09T14:54:08;94500.38;;;19.96;64.16
62978;BME280;49073;42.352;23.808;2022-07-09T14:57:08;94501.88;;;19.97;64.26
62978;BME280;49073;42.352;23.808;2022-07-09T15:00:09;94501.25;;;20.09;64.19
62978;BME280;49073;42.352;23.808;2022-07-09T15:03:10;94500.56;;;20.05;63.50
62978;BME280;49073;42.352;23.808;2022-07-09T15:06:11;94506.19;;;19.94;64.69
62978;BME280;49073;42.352;23.808;2022-07-09T15:09:11;94505.56;;;19.86;63.40
62978;BME280;49073;42.352;23.808;2022-07-09T15:12:12;94494.97;;;19.75;63.39
62978;BME280;49073;42.352;23.808;2022-07-09T15:15:12;94502.59;;;19.81;64.19
62978;BME280;49073;42.352;23.808;2022-07-09T15:18:13;94498.78;;;19.78;63.36
62978;BME280;49073;42.352;23.808;2022-07-09T15:21:14;94498.06;;;19.74;64.20
62978;BME280;49073;42.352;23.808;2022-07-09T15:24:14;94494.88;;;19.79;64.80
62978;BME280;49073;42.352;23.808;2022-07-09T15:27:15;94503.84;;;19.76;64.33
62978;BME280;49073;42.352;23.808;2022-07-09T15:30:16;94515.69;;;19.62;64.19
62978;BME280;49073;42.352;23.808;2022-07-09T15:33:19;94507.50;;;19.66;63.93
62978;BME280;49073;42.352;23.808;2022-07-09T15:36:19;94512.78;;;19.53;64.58
62978;BME280;49073;42.352;23.808;2022-07-09T15:39:21;94508.28;;;19.46;64.63
62978;BME280;49073;42.352;23.808;2022-07-09T15:42:21;94509.09;;;19.43;64.50
62978;BME280;49073;42.352;23.808;2022-07-09T15:45:21;94508.97;;;19.30;64.89
62978;BME280;49073;42.352;23.808;2022-07-09T15:48:22;94517.31;;;19.36;65.18
62978;BME280;49073;42.352;23.808;2022-07-09T15:51:23;94519.81;;;19.26;65.04
62978;BME280;49073;42.352;23.808;2022-07-09T15:54:23;94512.13;;;19.25;64.88